Terminal Aerodrome Forecast
Issued by NWS

Home | Current Version | Previous Version | Text Only | Print | Product List | Glossary On
Versions: 1 2 3 4 5 6 7 8 9 10 11 12 13 14 15 16 17
000
FTUS44 KOHX 241140
TAFCKV
TAF
KCKV 241140Z 2412/2512 33003KT P6SM SKC
     FM241900 20006KT P6SM VCTS BKN045CB BKN080
     FM250000 21004KT P6SM SCT100
     FM250800 18002KT 3SM BR SCT100=

USA.gov is the U.S. government's official web portal to all federal, state and local government web resources and services.